Moron De La Frontera, Spain

1:50 AM CET on December 27, 2014 (GMT +0100)
Moron Air Base | Change Station
CLOSE
Current Station
Airport
Location: Moron de la Frontera,
Elevation: 289 ft
Nearby Weather Stations

Elev 289 ft 37.16 °N, 5.62 °W | Updated 50 minutes ago

Clear
Clear
39 °F
Feels Like 39 °F
N
2
Wind Variable Wind from SSE

Today
High -- | Low -- °F
--% Chance of Precip.
Yesterday
High -- | Low -- °F
Precip. -- in
8:34 AM 6:12 PM
Waxing Crescent, 31% visible
Pressure 30.42 in
Visibility -9999.0 miles
Clouds
Dew Point 37 °F
Humidity 93%
Rainfall 0.00 in
Snow Depth Not available.
UV Not available.
Pollen Not available.
Air Quality Not available.
Flu Activity Not available.
METAR LEMO 270000Z 15002KT CAVOK 04/03 Q1030 NOSIG

More Conditions Fewer Conditions

Pressure 30.42 in
Visibility -9999.0 miles
Clouds
Dew Point 37 °F
Humidity 93%
Rainfall 0.00 in
Snow Depth Not available.
UV Not available.
Pollen Not available.
Air Quality Not available.
Flu Activity Not available.
METAR LEMO 270000Z 15002KT CAVOK 04/03 Q1030 NOSIG

More Conditions Fewer Conditions

10-Day Weather Forecast

Almanac

Astronomy

Dec. 27, 2014 Rise Set
Actual Time
Civil Twilight
Nautical Twilight
Astronomical Twilight
Moon
Length of Visible Light
Length of Day
Tomorrow will be .
, % of the Moon is Illuminated

Today's Extremes

Country Highs Country Lows

Community

WunderPhotos

Upload Photos

1,780,799 photos uploaded!

WunderBlogs® & News

Nearby

Air Quality

  Air Quality AQ Index Pollutant
Not available.

Snow Depth

Station Depth Elevation

Earthquake Activity

City Distance Mag. Time & Date
Minimum magnitude displayed is 2.5.

Coastal Water Temperatures

Place Temperature

Nearby Weather Stations